Pagrindinis puslapis
METAR-TAF:

METAR-TAF

Oro uostai :

Pataja-Rayong, Tailandas

platuma: 12-38N, ilguma: 101-21E, Aukštis: 3 m

Dabartinis oras

Ataskaita buvo paskelbta 21 minutes, ne 03:30 UTC
Vėjas 4 kt iš Pietvakarių
Temperatūra 33°C
Drėgmė 59%
Slėgis 1013 hPa
Matomumas 10 km arba daugiau
Mažai debesys ne aukštis 2000 ft

METAR: VTBU 310330Z 22004KT 9999 FEW020 33/24 Q1013 NOSIG

Laikas: 10:51 (03:51 UTC)

Prognozė

Ataskaita buvo paskelbta 4 valandos ir 51 minutes, ne 23:00 UTC
Prognozė galioja nuo 31 metu 00 UTC su 31 metu 24 UTC
Vėjas 3 kt iš Šiaurės Rytų
Matomumas 10 km arba daugiau
Mažai debesys ne aukštis 2000 ft
Tapsmas
nuo 31 metu 02 UTC su 31 metu 04 UTC
Vėjas 10 kt iš Pietų/Pietvakarių
Tapsmas
nuo 31 metu 14 UTC su 31 metu 16 UTC
Vėjas 4 kt iš Šiaurės Rytų

TAF: VTBU 302300Z 3100/3124 04003KT 9999 FEW020 BECMG 3102/3104 20010KT BECMG 3114/3116 04004KT

Orai ataskaitas ir orų prognozės (METAR, TAF).

turimą stotys yra geltonos ir raudonos taškus žemėlapyje.

Perkelti pele per norėdami pamatyti stoties vardą.

Tada spustelėkite, norėdami matyti oro stebėjimo ir prognozės.

Norėdami pakeisti žemėlapį: spustelėkite ant žalios mygtukų su juodo kryžiaus žemyn,; žalią mygtuką su brūkšneliu, jei norite nutolinti; arba žalių rodyklių gretimoms žemėlapius.


METAR-TAF: